Time;durP1;ratioP1;P1;durP2;ratioP2;P2;SDS_P1;SDS_P2;PMS_P1;PMS_P2;Temp;Humidity;BMP_temperature;BMP_pressure;BME280_temperature;BME280_humidity;BME280_pressure;Samples;Min_cycle;Max_cycle;Signal;HPM_P1;HPM_P2
2022/04/03 00:01:20;;;;;;;2.35;1.80;;;2.00;90.20;;;;;;4252809;27;20038;-86
2022/04/03 00:03:22;;;;;;;4.25;1.80;;;2.80;90.30;;;;;;4217489;28;20526;-87
2022/04/03 00:05:24;;;;;;;1.80;1.10;;;2.70;90.60;;;;;;4217488;28;20055;-87
2022/04/03 00:07:24;;;;;;;6.65;1.90;;;3.10;90.50;;;;;;4234396;28;20057;-87
2022/04/03 00:09:26;;;;;;;3.38;1.48;;;1.60;90.40;;;;;;4224329;28;20507;-87
2022/04/03 00:11:28;;;;;;;4.00;1.60;;;1.80;90.90;;;;;;4269935;27;20039;-87
2022/04/03 00:13:29;;;;;;;3.40;1.70;;;2.40;90.90;;;;;;4219194;28;20171;-86
2022/04/03 00:15:32;;;;;;;2.53;1.50;;;3.10;91.20;;;;;;4234548;28;20051;-87
2022/04/03 00:17:32;;;;;;;2.53;1.30;;;2.60;90.60;;;;;;4234224;28;20569;-87
2022/04/03 00:19:33;;;;;;;3.42;1.55;;;2.80;90.70;;;;;;4234763;28;20055;-87
2022/04/03 00:21:36;;;;;;;2.90;1.70;;;2.10;90.90;;;;;;4217960;28;20052;-87
2022/04/03 00:23:36;;;;;;;4.25;1.70;;;2.20;90.90;;;;;;4234345;28;20059;-87
2022/04/03 00:25:38;;;;;;;2.97;1.38;;;;;;;;;;4234272;28;20051;-87
2022/04/03 00:27:39;;;;;;;4.07;2.22;;;1.70;90.60;;;;;;4234240;28;20585;-87
2022/04/03 00:29:40;;;;;;;3.55;1.40;;;2.50;91.20;;;;;;4217820;28;20040;-87
2022/04/03 00:31:41;;;;;;;4.35;1.55;;;2.20;90.80;;;;;;4234040;28;20131;-87
2022/04/03 00:33:43;;;;;;;3.78;1.65;;;3.20;91.30;;;;;;4236625;27;20040;-87
2022/04/03 00:35:44;;;;;;;3.85;1.48;;;2.90;91.50;;;;;;4250732;27;20513;-87
2022/04/03 00:37:46;;;;;;;3.70;1.75;;;3.10;91.70;;;;;;4218305;28;20048;-86
2022/04/03 00:39:47;;;;;;;2.75;1.00;;;3.00;91.40;;;;;;4234802;28;20048;-87
2022/04/03 00:41:48;;;;;;;5.65;1.92;;;1.70;91.40;;;;;;4254331;27;20070;-88
2022/04/03 00:43:48;;;;;;;3.90;1.38;;;1.60;91.50;;;;;;4269708;27;20039;-86
2022/04/03 00:45:49;;;;;;;2.20;1.40;;;2.20;91.40;;;;;;4241356;27;20126;-87
2022/04/03 00:47:58;;;;;;;2.92;1.80;;;1.50;91.80;;;;;;4234959;28;20051;-87
2022/04/03 00:50:02;;;;;;;3.10;1.38;;;2.20;92.10;;;;;;4253289;27;20066;-87
2022/04/03 00:52:03;;;;;;;4.38;1.50;;;1.50;91.60;;;;;;4234569;28;20057;-87
2022/04/03 00:54:07;;;;;;;2.58;1.42;;;1.40;91.90;;;;;;4234462;28;20032;-87
2022/04/03 00:56:10;;;;;;;2.03;1.15;;;1.40;91.80;;;;;;4234476;28;20051;-86
2022/04/03 00:58:13;;;;;;;3.22;1.30;;;1.60;92.10;;;;;;4251481;27;20076;-87
2022/04/03 01:00:14;;;;;;;3.78;1.40;;;2.30;92.50;;;;;;4221828;28;20075;-87
2022/04/03 01:02:15;;;;;;;3.45;1.35;;;1.30;92.30;;;;;;4270203;27;20060;-87
2022/04/03 01:04:16;;;;;;;3.63;1.20;;;1.90;92.50;;;;;;4251217;27;20038;-87
2022/04/03 01:06:18;;;;;;;1.85;1.17;;;1.30;92.50;;;;;;4270081;27;20035;-87
2022/04/03 01:08:19;;;;;;;3.15;1.25;;;1.30;92.80;;;;;;4251603;27;20144;-87
2022/04/03 01:10:22;;;;;;;2.25;1.20;;;2.50;92.90;;;;;;4255441;27;20126;-87
2022/04/03 01:12:24;;;;;;;1.80;1.05;;;1.30;92.90;;;;;;4217654;28;20040;-86
2022/04/03 01:14:37;;;;;;;3.00;1.27;;;0.50;92.90;;;;;;4234598;28;20499;-87
2022/04/03 01:16:41;;;;;;;3.22;1.30;;;1.40;93.10;;;;;;4252508;27;20039;-87
2022/04/03 01:18:43;;;;;;;2.70;1.23;;;1.10;93.30;;;;;;4253094;27;20075;-87
2022/04/03 01:20:46;;;;;;;6.85;1.30;;;2.60;93.70;;;;;;4252392;27;20099;-87
2022/04/03 01:22:46;;;;;;;2.72;1.40;;;2.50;93.60;;;;;;4217073;28;20089;-87
2022/04/03 01:24:55;;;;;;;2.67;1.42;;;2.00;93.80;;;;;;4233964;28;20458;-87
2022/04/03 01:27:00;;;;;;;2.60;1.55;;;2.70;93.90;;;;;;4217341;28;20051;-87
2022/04/03 01:29:02;;;;;;;2.40;1.55;;;1.20;93.50;;;;;;4250347;27;20031;-86
2022/04/03 01:31:04;;;;;;;3.47;1.60;;;1.90;94.10;;;;;;4257662;27;20046;-87
2022/04/03 01:33:05;;;;;;;3.20;1.40;;;2.10;94.40;;;;;;4237505;27;20068;-86
2022/04/03 01:35:06;;;;;;;4.57;1.60;;;1.10;94.10;;;;;;4251027;27;20481;-87
2022/04/03 01:37:09;;;;;;;2.92;1.38;;;0.10;93.50;;;;;;4234434;28;20048;-87
2022/04/03 01:39:11;;;;;;;2.25;1.10;;;2.60;94.70;;;;;;4233539;28;20415;-87
2022/04/03 01:41:12;;;;;;;7.60;1.10;;;2.10;94.30;;;;;;4217331;28;20135;-87
2022/04/03 01:43:13;;;;;;;4.28;1.70;;;1.30;94.30;;;;;;4234616;28;20044;-87
2022/04/03 01:45:14;;;;;;;2.97;1.00;;;1.90;94.30;;;;;;4233059;28;20044;-87
2022/04/03 01:47:15;;;;;;;5.40;1.10;;;1.40;94.50;;;;;;4234640;28;20052;-87
2022/04/03 01:49:18;;;;;;;2.15;1.30;;;1.20;94.60;;;;;;4220633;28;20047;-87
2022/04/03 01:51:20;;;;;;;2.72;1.30;;;2.60;95.30;;;;;;4233951;28;20050;-87
2022/04/03 01:53:22;;;;;;;2.65;1.40;;;2.70;95.30;;;;;;4235169;28;20044;-87
2022/04/03 01:55:28;;;;;;;7.10;1.13;;;1.30;95.30;;;;;;4249597;27;20050;-86
2022/04/03 01:57:30;;;;;;;4.13;1.23;;;1.10;95.30;;;;;;4269476;27;20038;-86
2022/04/03 01:59:32;;;;;;;2.70;1.17;;;2.40;95.90;;;;;;4251285;27;20096;-87
2022/04/03 02:01:35;;;;;;;2.67;0.90;;;1.40;95.20;;;;;;4235451;27;20365;-86
2022/04/03 02:03:36;;;;;;;2.60;1.10;;;2.50;95.80;;;;;;4228928;28;20042;-87
2022/04/03 02:05:38;;;;;;;2.67;1.10;;;2.50;95.70;;;;;;4269962;27;20047;-86
2022/04/03 02:07:39;;;;;;;1.27;0.80;;;2.30;96.20;;;;;;4234772;28;20050;-87
2022/04/03 02:09:40;;;;;;;2.10;0.90;;;1.40;95.60;;;;;;4225485;28;20086;-86
2022/04/03 02:11:41;;;;;;;3.00;1.20;;;0.80;95.80;;;;;;4251246;27;20055;-86
2022/04/03 02:13:42;;;;;;;1.52;0.90;;;2.40;96.70;;;;;;4251066;27;20039;-87
2022/04/03 02:15:43;;;;;;;1.98;1.20;;;1.70;96.00;;;;;;4260382;27;20039;-87
2022/04/03 02:17:44;;;;;;;1.42;1.00;;;1.50;96.40;;;;;;4251904;27;20043;-86
2022/04/03 02:19:46;;;;;;;2.53;1.00;;;2.80;96.90;;;;;;4234274;28;20078;-86
2022/04/03 02:21:47;;;;;;;6.35;0.90;;;1.50;96.20;;;;;;4233966;28;20554;-86
2022/04/03 02:23:48;;;;;;;3.75;0.90;;;2.60;96.40;;;;;;4251197;27;20055;-86
2022/04/03 02:25:50;;;;;;;1.25;0.85;;;1.60;96.50;;;;;;4251563;27;20059;-86
2022/04/03 02:27:54;;;;;;;1.60;1.10;;;2.70;96.70;;;;;;4244395;27;20047;-86
2022/04/03 02:29:56;;;;;;;4.47;1.00;;;2.80;96.80;;;;;;4218829;28;20051;-86
2022/04/03 02:31:59;;;;;;;1.23;0.90;;;3.10;96.60;;;;;;4250037;27;20089;-86
2022/04/03 02:34:00;;;;;;;1.95;0.90;;;2.80;96.80;;;;;;4226589;28;20047;-87
2022/04/03 02:36:01;;;;;;;4.70;1.20;;;2.20;96.40;;;;;;4232556;28;20098;-86
2022/04/03 02:38:03;;;;;;;1.08;0.73;;;2.70;96.50;;;;;;4251228;27;20039;-86
2022/04/03 02:40:06;;;;;;;1.88;1.20;;;1.80;96.80;;;;;;4215069;28;20044;-86
2022/04/03 02:42:07;;;;;;;1.08;0.85;;;1.90;96.50;;;;;;4250671;27;20196;-86
2022/04/03 02:44:08;;;;;;;6.32;1.83;;;3.30;97.10;;;;;;4232102;28;20443;-86
2022/04/03 02:46:12;;;;;;;2.00;1.10;;;2.40;97.80;;;;;;4215306;28;20044;-87
2022/04/03 02:48:14;;;;;;;3.75;1.02;;;3.20;97.80;;;;;;4231648;28;20052;-86
2022/04/03 02:50:17;;;;;;;1.52;1.02;;;2.20;98.00;;;;;;4251093;27;20039;-87
2022/04/03 02:52:20;;;;;;;1.38;0.73;;;1.60;98.00;;;;;;4246711;27;20043;-87
2022/04/03 02:54:21;;;;;;;0.90;0.73;;;3.20;98.50;;;;;;4262015;27;20035;-87
2022/04/03 02:56:21;;;;;;;2.88;0.70;;;2.60;98.60;;;;;;4250407;27;20527;-87
2022/04/03 02:58:23;;;;;;;0.70;0.57;;;2.30;98.70;;;;;;4215053;28;20040;-87
2022/04/03 03:00:24;;;;;;;0.45;0.30;;;1.60;98.50;;;;;;4252899;27;20379;-87
2022/04/03 03:02:26;;;;;;;0.43;0.38;;;0.60;98.40;;;;;;4249028;28;20100;-87
2022/04/03 03:04:27;;;;;;;0.95;0.20;;;1.70;98.60;;;;;;4217628;28;20576;-86
2022/04/03 03:06:29;;;;;;;3.00;0.40;;;3.00;99.60;;;;;;4239564;28;20487;-86
2022/04/03 03:08:30;;;;;;;1.38;0.35;;;1.90;99.00;;;;;;4267888;27;20204;-85
2022/04/03 03:10:30;;;;;;;1.00;0.40;;;1.70;99.30;;;;;;4233467;28;20491;-87
2022/04/03 03:12:31;;;;;;;0.60;0.28;;;2.90;99.80;;;;;;4250271;28;20048;-86
2022/04/03 03:14:32;;;;;;;0.50;0.35;;;2.70;99.90;;;;;;4215799;28;20055;-86
2022/04/03 03:16:34;;;;;;;1.60;0.45;;;3.30;99.90;;;;;;4230915;28;20526;-86
2022/04/03 03:18:35;;;;;;;2.05;0.40;;;2.80;99.90;;;;;;4259391;27;20039;-86
2022/04/03 03:20:35;;;;;;;0.65;0.50;;;2.20;99.90;;;;;;4232401;28;20573;-87
2022/04/03 03:22:38;;;;;;;0.60;0.40;;;3.10;99.90;;;;;;4218882;28;20044;-87
2022/04/03 03:24:38;;;;;;;2.13;0.40;;;1.80;99.80;;;;;;4235153;28;20511;-87
2022/04/03 03:26:41;;;;;;;2.72;0.40;;;2.30;99.90;;;;;;4234450;28;20089;-87
2022/04/03 03:28:42;;;;;;;1.80;0.50;;;1.90;99.90;;;;;;4253236;27;20485;-86
2022/04/03 03:30:43;;;;;;;0.43;0.38;;;2.40;99.90;;;;;;4218187;28;20127;-86
2022/04/03 03:32:46;;;;;;;0.60;0.40;;;2.60;99.90;;;;;;4235542;28;20471;-87
2022/04/03 03:34:48;;;;;;;0.60;0.30;;;2.30;99.90;;;;;;4246947;27;20126;-87
2022/04/03 03:36:49;;;;;;;3.05;0.88;;;1.80;99.90;;;;;;4242126;27;20464;-86
2022/04/03 03:38:50;;;;;;;1.67;0.50;;;2.10;99.90;;;;;;4253168;27;20035;-87
2022/04/03 03:40:52;;;;;;;1.20;0.38;;;3.20;99.90;;;;;;4234971;28;20419;-86
2022/04/03 03:42:53;;;;;;;3.95;1.13;;;3.00;99.90;;;;;;4253351;27;20122;-85
2022/04/03 03:44:54;;;;;;;2.42;0.60;;;2.30;99.90;;;;;;4246005;27;20052;-86
2022/04/03 03:46:55;;;;;;;4.13;0.40;;;3.30;99.90;;;;;;4270467;27;20078;-87
2022/04/03 03:48:56;;;;;;;1.63;0.90;;;2.30;99.90;;;;;;4269449;27;20050;-86
2022/04/03 03:50:57;;;;;;;3.65;0.52;;;2.70;99.90;;;;;;4249073;27;20039;-86
2022/04/03 03:52:57;;;;;;;3.28;0.90;;;1.70;99.90;;;;;;4253034;27;20050;-86
2022/04/03 03:54:58;;;;;;;3.00;0.95;;;2.70;99.90;;;;;;4234714;28;20091;-86
2022/04/03 03:56:59;;;;;;;3.28;1.10;;;3.20;99.90;;;;;;4234504;28;20047;-85
2022/04/03 03:59:00;;;;;;;4.95;0.70;;;2.10;99.90;;;;;;4253166;27;20055;-87
2022/04/03 04:01:01;;;;;;;3.78;0.70;;;1.40;99.90;;;;;;4217050;28;20044;-86
2022/04/03 04:03:02;;;;;;;1.23;0.60;;;2.20;99.90;;;;;;4234868;28;20403;-87
2022/04/03 04:05:04;;;;;;;1.40;0.60;;;2.70;99.90;;;;;;4252617;27;20035;-87
2022/04/03 04:07:06;;;;;;;2.53;1.05;;;1.50;99.90;;;;;;4253069;27;20043;-86
2022/04/03 04:09:07;;;;;;;1.08;0.70;;;1.30;99.90;;;;;;4217706;28;20051;-87
2022/04/03 04:11:09;;;;;;;3.80;0.85;;;1.60;99.90;;;;;;4217796;28;20080;-87
2022/04/03 04:13:10;;;;;;;2.78;1.20;;;1.90;99.90;;;;;;4216946;28;20126;-87
2022/04/03 04:15:12;;;;;;;1.52;0.80;;;2.20;99.90;;;;;;4217764;28;20055;-87
2022/04/03 04:17:14;;;;;;;2.85;0.80;;;2.80;99.90;;;;;;4234373;28;20048;-87
2022/04/03 04:19:17;;;;;;;3.00;0.75;;;2.60;99.90;;;;;;4217438;28;20438;-86
2022/04/03 04:21:18;;;;;;;2.83;0.85;;;2.30;99.90;;;;;;4239611;27;20440;-86
2022/04/03 04:23:20;;;;;;;2.08;1.00;;;2.10;99.90;;;;;;4252357;27;20047;-86
2022/04/03 04:25:22;;;;;;;1.25;0.77;;;1.50;99.90;;;;;;4267100;27;20038;-87
2022/04/03 04:27:24;;;;;;;2.20;0.80;;;2.30;99.90;;;;;;4245238;27;20077;-86
2022/04/03 04:29:25;;;;;;;4.15;0.70;;;2.50;99.90;;;;;;4217055;28;20040;-86
2022/04/03 04:31:26;;;;;;;1.67;0.85;;;1.50;99.90;;;;;;4234142;28;20070;-87
2022/04/03 04:33:27;;;;;;;2.90;0.88;;;2.70;99.90;;;;;;4223483;28;20092;-87
2022/04/03 04:35:27;;;;;;;4.18;1.05;;;2.70;99.90;;;;;;4217395;28;20048;-87
2022/04/03 04:37:29;;;;;;;2.50;0.90;;;2.50;99.90;;;;;;4252313;27;20122;-87
2022/04/03 04:39:31;;;;;;;2.50;0.82;;;1.50;99.90;;;;;;4241700;27;20115;-87
2022/04/03 04:41:32;;;;;;;1.48;0.70;;;2.70;99.90;;;;;;4217769;28;20488;-87
2022/04/03 04:43:33;;;;;;;1.48;1.00;;;2.20;99.90;;;;;;4252356;27;20058;-87
2022/04/03 04:45:35;;;;;;;3.75;0.95;;;2.30;99.90;;;;;;4217300;28;20055;-87
2022/04/03 04:47:37;;;;;;;2.45;1.17;;;1.40;99.90;;;;;;4252445;27;20487;-87
2022/04/03 04:49:39;;;;;;;2.58;0.88;;;2.50;99.90;;;;;;4234196;28;20097;-87
2022/04/03 04:51:41;;;;;;;2.15;1.10;;;2.60;99.90;;;;;;4234054;28;20040;-87
2022/04/03 04:53:43;;;;;;;2.72;1.02;;;2.70;99.90;;;;;;4217961;28;20051;-87
2022/04/03 04:55:44;;;;;;;3.00;0.88;;;1.40;99.90;;;;;;4252176;27;20045;-87
2022/04/03 04:57:50;;;;;;;6.18;2.28;;;2.70;99.90;;;;;;4217083;28;20088;-86
2022/04/03 04:59:51;;;;;;;2.35;0.98;;;1.90;99.90;;;;;;4217215;28;20055;-87
2022/04/03 05:01:56;;;;;;;2.80;1.10;;;1.80;99.90;;;;;;4233602;28;20051;-86
2022/04/03 05:03:57;;;;;;;2.42;1.00;;;2.00;99.90;;;;;;4267929;27;20062;-85
2022/04/03 05:05:59;;;;;;;2.17;1.00;;;1.30;99.90;;;;;;4248432;27;20072;-87
2022/04/03 05:08:01;;;;;;;3.90;1.05;;;1.60;99.90;;;;;;4252716;27;20067;-87
2022/04/03 05:10:04;;;;;;;3.85;1.95;;;1.00;99.90;;;;;;4246542;27;20130;-86
2022/04/03 05:12:05;;;;;;;1.73;1.20;;;1.20;99.90;;;;;;4231422;28;20051;-87
2022/04/03 05:14:07;;;;;;;4.80;1.20;;;1.20;99.90;;;;;;4218721;28;20150;-87
2022/04/03 05:16:08;;;;;;;2.17;1.20;;;2.70;99.90;;;;;;4253176;27;20126;-86
2022/04/03 05:18:09;;;;;;;9.48;1.80;;;2.20;99.90;;;;;;4222777;28;20044;-86
2022/04/03 05:20:12;;;;;;;5.43;1.08;;;2.10;99.90;;;;;;4223046;28;20044;-87
2022/04/03 05:22:13;;;;;;;2.22;1.27;;;1.20;99.90;;;;;;4221880;28;20135;-87
2022/04/03 05:24:15;;;;;;;3.63;1.15;;;2.60;99.90;;;;;;4261762;27;20050;-87
2022/04/03 05:26:19;;;;;;;3.03;0.95;;;2.20;99.90;;;;;;4271837;27;20478;-87
2022/04/03 05:28:21;;;;;;;7.45;1.45;;;1.20;99.90;;;;;;4220522;28;20147;-88
2022/04/03 05:30:22;;;;;;;1.75;0.95;;;1.90;99.90;;;;;;4234160;28;20044;-85
2022/04/03 05:32:30;;;;;;;1.95;1.40;;;2.10;99.90;;;;;;4217812;28;20474;-85
2022/04/03 05:34:31;;;;;;;2.97;1.27;;;2.60;99.90;;;;;;4243274;27;20411;-86
2022/04/03 05:36:31;;;;;;;5.70;1.38;;;1.60;99.90;;;;;;4216377;28;20048;-86
2022/04/03 05:38:32;;;;;;;1.08;0.93;;;1.40;99.90;;;;;;4251803;27;20403;-86
2022/04/03 05:40:34;;;;;;;1.25;1.08;;;2.30;99.90;;;;;;4233212;28;20108;-87
2022/04/03 05:42:36;;;;;;;1.30;0.80;;;2.10;99.90;;;;;;4241484;27;20468;-87
2022/04/03 05:44:37;;;;;;;1.80;1.17;;;1.40;99.90;;;;;;4249110;27;20047;-87
2022/04/03 05:46:38;;;;;;;2.15;1.13;;;2.50;99.90;;;;;;4252061;27;20468;-87
2022/04/03 05:48:39;;;;;;;1.90;1.05;;;2.40;99.90;;;;;;4233336;28;20048;-87
2022/04/03 05:50:41;;;;;;;3.28;1.05;;;1.40;99.90;;;;;;4215949;28;20550;-86
2022/04/03 05:52:44;;;;;;;4.25;1.15;;;0.80;99.90;;;;;;4251149;27;20103;-87
2022/04/03 05:54:44;;;;;;;3.75;1.00;;;2.10;99.90;;;;;;4251004;27;20111;-87
2022/04/03 05:56:46;;;;;;;4.13;0.90;;;2.50;99.90;;;;;;4234799;27;20044;-87
2022/04/03 05:58:47;;;;;;;3.28;1.02;;;2.80;99.90;;;;;;4233102;28;20412;-87
2022/04/03 06:00:48;;;;;;;4.63;1.15;;;1.50;99.90;;;;;;4223246;28;20048;-87
2022/04/03 06:02:54;;;;;;;2.50;1.20;;;2.20;99.90;;;;;;4224251;28;20051;-87
2022/04/03 06:04:56;;;;;;;2.65;1.27;;;2.70;99.90;;;;;;4233211;28;20085;-89
2022/04/03 06:06:57;;;;;;;4.72;1.13;;;1.70;99.90;;;;;;4257419;27;20047;-86
2022/04/03 06:09:18;;;;;;;4.28;1.10;;;2.00;99.90;;;;;;4220129;28;20131;-87
2022/04/03 06:11:20;;;;;;;3.92;1.52;;;1.80;99.90;;;;;;4251496;27;20111;-88
2022/04/03 06:13:24;;;;;;;1.70;1.00;;;3.40;99.90;;;;;;4254065;27;20458;-87
2022/04/03 06:15:27;;;;;;;5.75;1.30;;;3.60;99.90;;;;;;4251021;27;20487;-87
2022/04/03 06:17:29;;;;;;;3.72;1.40;;;2.00;99.90;;;;;;4216247;28;20055;-87
2022/04/03 06:19:30;;;;;;;3.60;1.10;;;3.30;99.90;;;;;;4225387;28;20083;-87
2022/04/03 06:21:31;;;;;;;6.35;1.17;;;3.30;99.90;;;;;;4258533;27;20546;-87
2022/04/03 06:23:32;;;;;;;3.75;1.20;;;2.10;99.90;;;;;;4232271;28;20047;-86
2022/04/03 06:25:36;;;;;;;3.00;1.02;;;2.20;99.90;;;;;;4233526;27;20506;-86
2022/04/03 06:27:37;;;;;;;5.00;1.48;;;2.20;99.90;;;;;;4242197;27;20070;-86
2022/04/03 06:29:37;;;;;;;1.83;1.00;;;2.30;99.90;;;;;;4249816;27;20496;-87
2022/04/03 06:31:38;;;;;;;5.70;1.23;;;2.30;99.90;;;;;;4229238;28;20055;-86
2022/04/03 06:33:40;;;;;;;5.35;0.82;;;2.20;99.90;;;;;;4241113;27;20087;-86
2022/04/03 06:35:43;;;;;;;2.60;1.10;;;2.20;99.90;;;;;;4254406;27;20035;-87
2022/04/03 06:37:45;;;;;;;2.08;0.90;;;2.90;99.90;;;;;;4235072;28;20051;-88
2022/04/03 06:39:46;;;;;;;3.75;1.10;;;3.40;99.90;;;;;;4236825;28;20081;-88
2022/04/03 06:41:47;;;;;;;9.27;1.10;;;2.90;99.90;;;;;;4218029;28;20076;-88
2022/04/03 06:43:49;;;;;;;3.40;1.10;;;2.00;99.90;;;;;;4233714;28;20892;-87
2022/04/03 06:45:51;;;;;;;2.95;1.02;;;3.00;99.90;;;;;;4235485;28;20055;-86
2022/04/03 06:47:56;;;;;;;2.97;0.90;;;2.70;99.90;;;;;;4233233;28;20044;-87
2022/04/03 06:49:59;;;;;;;2.28;1.20;;;2.80;99.90;;;;;;4233332;28;20488;-87
2022/04/03 06:52:01;;;;;;;4.72;1.17;;;;;;;;;;4233084;28;20119;-87
2022/04/03 06:54:03;;;;;;;2.88;1.00;;;3.70;99.90;;;;;;4233431;28;20039;-87
2022/04/03 06:56:04;;;;;;;3.70;1.00;;;2.50;99.90;;;;;;4232905;28;20071;-86
2022/04/03 06:58:05;;;;;;;1.85;0.93;;;2.70;99.90;;;;;;4232145;28;20042;-87
2022/04/03 07:00:08;;;;;;;3.67;1.20;;;4.00;99.90;;;;;;4231376;28;20412;-87
2022/04/03 07:02:09;;;;;;;2.72;1.27;;;2.10;99.90;;;;;;4232957;28;20040;-88
2022/04/03 07:04:11;;;;;;;4.57;1.02;;;3.20;99.90;;;;;;4231068;28;20120;-87
2022/04/03 07:06:13;;;;;;;4.68;0.80;;;4.60;99.90;;;;;;4247389;28;20047;-87
2022/04/03 07:08:13;;;;;;;2.95;0.95;;;5.10;99.90;;;;;;4241657;28;20051;-87
2022/04/03 07:10:14;;;;;;;4.18;1.05;;;4.30;99.90;;;;;;4213891;28;20489;-87
2022/04/03 07:12:15;;;;;;;2.05;0.80;;;4.60;99.90;;;;;;4213470;28;20470;-87
2022/04/03 07:14:16;;;;;;;3.78;1.10;;;5.50;99.90;;;;;;4231214;28;20087;-87
2022/04/03 07:16:17;;;;;;;5.07;0.82;;;4.30;99.90;;;;;;4231654;28;20075;-87
2022/04/03 07:18:18;;;;;;;3.10;0.95;;;5.80;99.90;;;;;;4231216;28;20044;-87
2022/04/03 07:20:19;;;;;;;4.20;0.70;;;6.10;99.90;;;;;;4232172;28;20048;-87
2022/04/03 07:22:20;;;;;;;7.38;1.00;;;6.30;99.90;;;;;;4232645;28;20057;-87
2022/04/03 07:24:22;;;;;;;0.85;0.55;;;6.30;99.90;;;;;;4235746;28;20105;-87
2022/04/03 07:26:24;;;;;;;3.15;0.70;;;5.20;99.90;;;;;;4231437;28;20122;-87
2022/04/03 07:28:24;;;;;;;1.10;0.63;;;6.20;99.90;;;;;;4230259;28;20126;-86
2022/04/03 07:30:25;;;;;;;2.17;0.65;;;6.50;99.90;;;;;;4231351;28;20492;-87
2022/04/03 07:32:26;;;;;;;1.38;0.50;;;5.70;99.90;;;;;;4231976;28;20058;-87
2022/04/03 07:34:26;;;;;;;3.22;0.60;;;5.50;99.90;;;;;;4231687;28;20585;-87
2022/04/03 07:36:29;;;;;;;3.03;0.80;;;5.60;99.90;;;;;;4237443;28;20070;-88
2022/04/03 07:38:30;;;;;;;4.25;0.80;;;5.70;99.90;;;;;;4238761;28;20064;-87
2022/04/03 07:40:31;;;;;;;3.55;0.50;;;5.70;99.90;;;;;;4248671;28;20088;-88
2022/04/03 07:42:33;;;;;;;5.75;1.10;;;6.70;99.90;;;;;;4246855;28;20110;-87
2022/04/03 07:44:34;;;;;;;1.83;0.70;;;6.30;99.90;;;;;;4246608;28;20054;-88
2022/04/03 07:46:36;;;;;;;1.70;0.50;;;7.30;99.90;;;;;;4247988;27;20042;-87
2022/04/03 07:48:37;;;;;;;0.95;0.40;;;6.20;99.90;;;;;;4229408;28;20920;-88
2022/04/03 07:50:43;;;;;;;1.20;0.40;;;7.60;99.90;;;;;;4250884;28;20077;-88
2022/04/03 07:52:44;;;;;;;0.40;0.40;;;7.80;99.90;;;;;;4246202;28;20040;-88
2022/04/03 07:54:45;;;;;;;1.75;0.45;;;7.80;99.90;;;;;;4247705;27;20410;-89
2022/04/03 07:56:47;;;;;;;2.35;0.40;;;6.80;99.90;;;;;;4247602;27;20039;-87
2022/04/03 07:58:49;;;;;;;2.25;0.60;;;7.70;99.90;;;;;;4247281;27;20031;-87
2022/04/03 08:00:50;;;;;;;2.92;0.93;;;;;;;;;;4227855;28;20495;-88
2022/04/03 08:02:51;;;;;;;0.50;0.38;;;;;;;;;;4246470;28;20414;-88
2022/04/03 08:04:52;;;;;;;1.08;0.60;;;8.00;99.80;;;;;;4246440;28;20056;-88
2022/04/03 08:06:54;;;;;;;0.77;0.60;;;;;;;;;;4237517;28;20039;-88
2022/04/03 08:08:55;;;;;;;3.15;1.23;;;;;;;;;;4232344;28;20055;-87
2022/04/03 08:10:56;;;;;;;4.95;0.80;;;;;;;;;;4231844;28;20071;-86
2022/04/03 08:12:57;;;;;;;3.08;0.43;;;;;;;;;;4216909;28;20044;-85
2022/04/03 08:15:01;;;;;;;4.03;0.80;;;8.50;99.30;;;;;;4216256;28;20469;-87
2022/04/03 08:17:02;;;;;;;3.47;0.68;;;8.40;97.90;;;;;;4232964;28;20047;-87
2022/04/03 08:19:03;;;;;;;1.83;0.57;;;;;;;;;;4240416;27;20543;-86
2022/04/03 08:21:04;;;;;;;3.72;0.68;;;8.30;98.00;;;;;;4232690;28;20051;-87
2022/04/03 08:23:05;;;;;;;2.55;0.60;;;8.80;97.80;;;;;;4231548;28;20487;-86
2022/04/03 08:25:07;;;;;;;2.05;0.52;;;;;;;;;;4233565;28;20415;-86
2022/04/03 08:27:10;;;;;;;2.33;0.60;;;8.70;97.80;;;;;;4232374;28;20388;-87
2022/04/03 08:29:10;;;;;;;6.43;0.60;;;8.50;97.60;;;;;;4231892;28;20126;-86
2022/04/03 08:31:12;;;;;;;0.90;0.50;;;8.60;98.00;;;;;;4232043;28;20047;-86
2022/04/03 08:33:13;;;;;;;1.10;0.60;;;8.30;98.00;;;;;;4232062;28;20047;-86
2022/04/03 08:35:14;;;;;;;5.30;1.63;;;8.40;97.90;;;;;;4230158;28;20514;-86
2022/04/03 08:37:16;;;;;;;7.90;1.30;;;8.70;97.70;;;;;;4244269;27;20043;-86
2022/04/03 08:39:17;;;;;;;5.95;0.60;;;;;;;;;;4244826;27;20120;-86
2022/04/03 08:41:18;;;;;;;0.80;0.50;;;;;;;;;;4233409;28;20530;-85
2022/04/03 08:43:20;;;;;;;3.03;0.50;;;;;;;;;;4231844;28;20452;-86
2022/04/03 08:45:22;;;;;;;0.90;0.50;;;9.10;97.20;;;;;;4234932;27;20131;-86
2022/04/03 08:47:25;;;;;;;2.80;0.50;;;;;;;;;;4233212;28;20377;-86
2022/04/03 08:49:27;;;;;;;3.13;0.50;;;;;;;;;;4231535;28;20465;-86
2022/04/03 08:51:30;;;;;;;6.15;0.93;;;;;;;;;;4235672;27;20071;-86
2022/04/03 08:53:32;;;;;;;1.17;0.40;;;;;;;;;;4233024;28;20044;-86
2022/04/03 08:55:34;;;;;;;2.00;0.65;;;;;;;;;;4233981;27;20049;-86
2022/04/03 08:57:35;;;;;;;2.92;0.50;;;;;;;;;;4232875;28;20432;-85
2022/04/03 08:59:39;;;;;;;2.92;0.55;;;;;;;;;;4232363;28;20051;-85
2022/04/03 09:01:40;;;;;;;8.85;1.13;;;;;;;;;;4235923;27;20365;-86
2022/04/03 09:03:41;;;;;;;4.70;0.40;;;;;;;;;;4242372;27;20039;-87
2022/04/03 09:05:47;;;;;;;4.57;0.50;;;;;;;;;;4250050;27;20062;-85
2022/04/03 09:08:00;;;;;;;2.08;0.35;;;;;;;;;;4247302;27;20047;-85
2022/04/03 09:10:11;;;;;;;2.25;0.50;;;;;;;;;;4232126;28;20040;-85
2022/04/03 09:12:13;;;;;;;1.38;0.45;;;;;;;;;;4236572;27;20047;-86
2022/04/03 09:14:14;;;;;;;0.73;0.25;;;;;;;;;;4247960;27;20815;-85
2022/04/03 09:16:16;;;;;;;2.35;0.65;;;;;;;;;;4235739;27;20054;-86
2022/04/03 09:18:18;;;;;;;1.17;0.30;;;;;;;;;;4230879;28;20042;-86
2022/04/03 09:20:22;;;;;;;2.65;0.47;;;;;;;;;;4232097;28;20046;-85
2022/04/03 09:22:30;;;;;;;3.13;0.95;;;;;;;;;;4232754;28;20047;-85
2022/04/03 09:24:34;;;;;;;0.43;0.43;;;;;;;;;;4241136;27;20495;-86
2022/04/03 09:26:36;;;;;;;0.63;0.30;;;;;;;;;;4235234;27;20050;-86
2022/04/03 09:28:40;;;;;;;2.22;0.90;;;;;;;;;;4216774;28;20463;-86
2022/04/03 09:30:45;;;;;;;2.28;0.63;;;;;;;;;;4236841;27;20110;-86
2022/04/03 09:32:50;;;;;;;1.90;0.30;;;;;;;;;;4243687;27;20393;-86
2022/04/03 09:34:56;;;;;;;2.03;0.28;;;;;;;;;;4236219;27;20051;-86
2022/04/03 09:37:07;;;;;;;3.90;0.40;;;;;;;;;;4231273;28;20049;-86
2022/04/03 09:39:08;;;;;;;1.90;0.40;;;;;;;;;;4234704;27;20047;-86
2022/04/03 09:41:09;;;;;;;3.70;0.73;;;;;;;;;;4243483;27;20043;-86
2022/04/03 09:43:15;;;;;;;1.60;0.30;;;;;;;;;;4238034;27;20376;-86
2022/04/03 09:45:25;;;;;;;3.40;0.88;;;;;;;;;;4240001;27;20046;-85
2022/04/03 09:47:30;;;;;;;0.40;0.30;;;;;;;;;;4249434;27;20050;-86
2022/04/03 09:49:31;;;;;;;1.42;0.40;;;;;;;;;;4247188;27;20040;-86
2022/04/03 09:51:34;;;;;;;1.75;0.47;;;;;;;;;;4231426;28;20463;-85
2022/04/03 09:53:42;;;;;;;1.35;0.30;;;;;;;;;;4238206;27;20418;-86
2022/04/03 09:55:43;;;;;;;0.88;0.10;;;;;;;;;;4243163;27;20111;-87
2022/04/03 09:57:46;;;;;;;2.80;0.40;;;;;;;;;;4237318;27;20050;-86
2022/04/03 10:15:18;;;;;;;3.92;0.50;;;;;;;;;;4204520;27;1291440;-90
2022/04/03 10:17:21;;;;;;;1.55;0.60;;;;;;;;;;4228455;28;20414;-90
2022/04/03 10:19:23;;;;;;;3.50;0.43;;;;;;;;;;4229186;28;20134;-90
2022/04/03 10:21:28;;;;;;;2.80;0.85;;;;;;;;;;4229188;28;20036;-90
2022/04/03 10:23:30;;;;;;;2.42;0.50;;;;;;;;;;4227935;28;20086;-90
2022/04/03 10:25:36;;;;;;;3.97;0.70;;;;;;;;;;4210895;28;20509;-90
2022/04/03 10:27:39;;;;;;;2.63;0.43;;;;;;;;;;4196771;28;20048;-91
2022/04/03 10:29:41;;;;;;;2.10;0.50;;;;;;;;;;4211723;28;20054;-90
2022/04/03 10:31:54;;;;;;;1.08;0.50;;;;;;;;;;4194482;28;20051;-90
2022/04/03 10:33:56;;;;;;;1.50;0.30;;;;;;;;;;4211996;28;20044;-90
2022/04/03 10:36:04;;;;;;;2.88;0.50;;;;;;;;;;4211842;28;20056;-91
2022/04/03 10:38:06;;;;;;;5.82;0.68;;;;;;;;;;4210896;28;20074;-90
2022/04/03 10:40:08;;;;;;;3.75;0.50;;;;;;;;;;4194345;28;20084;-90
2022/04/03 10:42:20;;;;;;;4.97;0.60;;;;;;;;;;4195105;28;20041;-90
2022/04/03 10:44:22;;;;;;;0.65;0.28;;;;;;;;;;4211667;28;20040;-89
2022/04/03 10:46:23;;;;;;;2.60;0.40;;;;;;;;;;4210871;28;20055;-90
2022/04/03 10:48:27;;;;;;;1.33;0.30;;;;;;;;;;4211733;28;20040;-91
2022/04/03 10:50:29;;;;;;;2.10;0.22;;;;;;;;;;4195324;28;20041;-90
2022/04/03 10:52:40;;;;;;;1.10;0.30;;;;;;;;;;4211638;28;20147;-90
2022/04/03 10:54:51;;;;;;;1.55;0.20;;;;;;;;;;4212840;28;20102;-89
2022/04/03 10:56:52;;;;;;;0.93;0.17;;;;;;;;;;4211082;28;20081;-90
2022/04/03 10:58:56;;;;;;;4.03;0.40;;;;;;;;;;4195486;28;20040;-92
2022/04/03 11:01:05;;;;;;;0.43;0.20;;;;;;;;;;4219551;28;20039;-90
2022/04/03 11:03:15;;;;;;;1.93;0.63;;;;;;;;;;4228259;28;20057;-90
2022/04/03 11:05:22;;;;;;;0.52;0.10;;;;;;;;;;4217765;28;20090;-89
2022/04/03 11:07:23;;;;;;;1.30;0.25;;;;;;;;;;4244758;28;20646;-89
2022/04/03 11:09:40;;;;;;;1.38;0.22;;;;;;;;;;4244975;28;20031;-89
2022/04/03 11:11:43;;;;;;;2.13;0.63;;;;;;;;;;4227954;28;20048;-90
2022/04/03 11:13:47;;;;;;;0.52;0.20;;;;;;;;;;4245324;28;20123;-88
2022/04/03 11:15:55;;;;;;;2.05;0.77;;;;;;;;;;4236450;28;20047;-88
2022/04/03 11:17:58;;;;;;;1.40;0.20;;;;;;;;;;4233919;28;20040;-89
2022/04/03 11:20:00;;;;;;;0.20;0.20;;;;;;;;;;4233749;28;20040;-87